createdAt,value
2022-09-24T00:00:21.710Z,10.35
2022-09-24T00:03:31.807Z,10.28
2022-09-24T00:06:24.958Z,10.23
2022-09-24T00:09:19.627Z,10.18
2022-09-24T00:12:13.410Z,10.12
2022-09-24T00:15:05.797Z,10.06
2022-09-24T00:17:58.173Z,10.00
2022-09-24T00:20:49.763Z,9.94
2022-09-24T00:23:41.796Z,9.89
2022-09-24T00:26:52.606Z,9.84
2022-09-24T00:29:45.454Z,9.78
2022-09-24T00:32:37.670Z,9.74
2022-09-24T00:35:31.570Z,9.68
2022-09-24T00:38:24.333Z,9.63
2022-09-24T00:41:16.446Z,9.60
2022-09-24T00:44:39.001Z,9.57
2022-09-24T00:47:37.386Z,9.49
2022-09-24T00:50:35.078Z,9.45
2022-09-24T00:53:32.092Z,9.41
2022-09-24T00:56:25.338Z,9.37
2022-09-24T00:59:19.918Z,9.32
2022-09-24T01:02:13.068Z,9.29
2022-09-24T01:05:06.395Z,9.25
2022-09-24T01:07:58.398Z,9.20
2022-09-24T01:11:02.506Z,9.17
2022-09-24T01:17:23.845Z,9.20
2022-09-24T01:20:51.106Z,9.19
2022-09-24T01:24:17.334Z,9.14
2022-09-24T01:27:12.397Z,9.08
2022-09-24T01:30:05.850Z,9.05
2022-09-24T01:32:58.336Z,8.97
2022-09-24T01:35:51.173Z,8.95
2022-09-24T01:38:44.044Z,8.90
2022-09-24T01:41:34.028Z,8.85
2022-09-24T01:44:23.193Z,8.80
2022-09-24T01:47:16.284Z,8.76
2022-09-24T01:50:08.370Z,8.71
2022-09-24T01:53:02.970Z,8.66
2022-09-24T01:55:57.394Z,8.62
2022-09-24T01:58:52.094Z,8.58
2022-09-24T02:01:47.481Z,8.50
2022-09-24T02:04:41.358Z,8.44
2022-09-24T02:07:35.325Z,8.39
2022-09-24T02:10:24.582Z,8.37
2022-09-24T02:13:16.324Z,8.34
2022-09-24T02:16:08.113Z,8.31
2022-09-24T02:19:00.845Z,8.26
2022-09-24T02:21:50.247Z,8.23
2022-09-24T02:24:47.333Z,8.19
2022-09-24T02:27:36.768Z,8.16
2022-09-24T02:30:25.524Z,8.10
2022-09-24T02:33:33.939Z,8.05
2022-09-24T02:36:24.438Z,8.01
2022-09-24T02:39:13.087Z,7.96
2022-09-24T02:42:05.029Z,7.92
2022-09-24T02:44:56.897Z,7.88
2022-09-24T02:47:45.697Z,7.86
2022-09-24T02:50:35.085Z,7.82
2022-09-24T02:53:23.207Z,7.79
2022-09-24T02:56:12.168Z,7.74
2022-09-24T02:59:01.927Z,7.69
2022-09-24T03:01:50.685Z,7.67
2022-09-24T03:04:39.248Z,7.62
2022-09-24T03:07:28.006Z,7.62
2022-09-24T03:10:17.331Z,7.58
2022-09-24T03:13:06.723Z,7.56
2022-09-24T03:15:55.332Z,7.53
2022-09-24T03:18:44.674Z,7.49
2022-09-24T03:21:34.045Z,7.46
2022-09-24T03:24:22.788Z,7.41
2022-09-24T03:27:11.537Z,7.39
2022-09-24T03:30:29.991Z,7.33
2022-09-24T03:33:20.182Z,7.32
2022-09-24T03:36:11.120Z,7.29
2022-09-24T03:38:59.736Z,7.25
2022-09-24T03:41:48.703Z,7.22
2022-09-24T03:44:37.449Z,7.17
2022-09-24T03:47:26.204Z,7.15
2022-09-24T03:50:15.165Z,7.13
2022-09-24T03:53:05.557Z,7.08
2022-09-24T03:55:56.710Z,7.04
2022-09-24T03:58:47.742Z,7.01
2022-09-24T04:01:37.991Z,6.97
2022-09-24T04:04:26.723Z,6.94
2022-09-24T04:07:14.862Z,6.92
2022-09-24T04:10:04.231Z,6.90
2022-09-24T04:12:52.981Z,6.86
2022-09-24T04:15:42.418Z,6.85
2022-09-24T04:18:34.639Z,6.83
2022-09-24T04:21:26.007Z,6.80
2022-09-24T04:24:15.577Z,6.79
2022-09-24T04:27:04.743Z,6.78
2022-09-24T04:29:53.905Z,6.77
2022-09-24T04:32:43.077Z,6.76
2022-09-24T04:35:35.363Z,6.73
2022-09-24T04:38:23.813Z,6.75
2022-09-24T04:41:15.301Z,6.74
2022-09-24T04:44:05.368Z,6.73
2022-09-24T04:47:01.229Z,6.72
2022-09-24T04:49:49.934Z,6.73
2022-09-24T04:52:38.278Z,6.73
2022-09-24T04:55:27.472Z,6.74
2022-09-24T04:58:15.749Z,6.76
2022-09-24T05:01:04.552Z,6.78
2022-09-24T05:03:53.304Z,6.80
2022-09-24T05:06:42.054Z,6.84
2022-09-24T05:09:31.566Z,6.86
2022-09-24T05:12:20.994Z,6.90
2022-09-24T05:15:12.357Z,6.94
2022-09-24T05:18:01.578Z,6.97
2022-09-24T05:20:50.126Z,7.02
2022-09-24T05:23:38.472Z,7.08
2022-09-24T05:26:45.247Z,7.13
2022-09-24T05:29:33.798Z,7.19
2022-09-24T05:32:23.582Z,7.22
2022-09-24T05:35:13.354Z,7.29
2022-09-24T05:38:01.821Z,7.37
2022-09-24T05:40:51.361Z,7.42
2022-09-24T05:43:41.258Z,7.48
2022-09-24T05:46:30.240Z,7.53
2022-09-24T05:49:19.550Z,7.59
2022-09-24T05:52:09.608Z,7.68
2022-09-24T05:54:58.351Z,7.75
2022-09-24T05:57:47.620Z,7.83
2022-09-24T06:00:37.068Z,7.90
2022-09-24T06:03:25.874Z,8.00
2022-09-24T06:06:14.980Z,8.09
2022-09-24T06:09:04.352Z,8.20
2022-09-24T06:11:54.337Z,8.31
2022-09-24T06:14:42.884Z,8.41
2022-09-24T06:17:32.049Z,8.51
2022-09-24T06:20:21.446Z,8.63
2022-09-24T06:23:09.964Z,8.75
2022-09-24T06:25:59.132Z,8.87
2022-09-24T06:28:47.486Z,8.99
2022-09-24T06:31:36.693Z,9.13
2022-09-24T06:34:24.805Z,9.25
2022-09-24T06:37:13.539Z,9.40
2022-09-24T06:40:03.152Z,9.51
2022-09-24T06:42:53.295Z,9.63
2022-09-24T06:45:44.054Z,9.77
2022-09-24T06:48:34.286Z,9.88
2022-09-24T06:51:23.048Z,10.00
2022-09-24T06:54:12.825Z,10.15
2022-09-24T06:57:03.749Z,10.27
2022-09-24T06:59:52.381Z,10.41
2022-09-24T07:02:41.979Z,10.56
2022-09-24T07:05:30.717Z,10.73
2022-09-24T07:08:19.290Z,10.89
2022-09-24T07:11:08.629Z,11.07
2022-09-24T07:13:57.382Z,11.23
2022-09-24T07:16:48.796Z,11.41
2022-09-24T07:19:37.965Z,11.58
2022-09-24T07:22:27.132Z,11.75
2022-09-24T07:25:15.681Z,11.92
2022-09-24T07:28:07.067Z,12.10
2022-09-24T07:31:00.727Z,12.28
2022-09-24T07:33:50.138Z,12.49
2022-09-24T07:36:38.891Z,12.66
2022-09-24T07:39:27.851Z,12.85
2022-09-24T07:42:16.587Z,13.03
2022-09-24T07:45:06.384Z,13.23
2022-09-24T07:48:01.209Z,13.40
2022-09-24T07:50:51.060Z,13.58
2022-09-24T07:53:39.411Z,13.76
2022-09-24T07:56:27.752Z,13.93
2022-09-24T07:59:16.507Z,14.14
2022-09-24T08:02:15.121Z,14.30
2022-09-24T08:05:03.437Z,14.48
2022-09-24T08:07:56.629Z,14.65
2022-09-24T08:10:45.666Z,14.84
2022-09-24T08:13:34.419Z,15.01
2022-09-24T08:16:23.437Z,15.17
2022-09-24T08:19:13.631Z,15.34
2022-09-24T08:22:04.898Z,15.50
2022-09-24T08:24:54.556Z,15.68
2022-09-24T08:27:42.697Z,15.84
2022-09-24T08:30:32.281Z,16.01
2022-09-24T08:33:20.620Z,16.18
2022-09-24T08:36:11.148Z,16.36
2022-09-24T08:38:59.765Z,16.50
2022-09-24T08:42:00.371Z,16.64
2022-09-24T08:45:09.633Z,16.78
2022-09-24T08:48:01.370Z,16.94
2022-09-24T08:51:00.457Z,17.09
2022-09-24T08:53:53.702Z,17.23
2022-09-24T08:56:46.326Z,17.37
2022-09-24T08:59:37.187Z,17.53
2022-09-24T09:02:42.435Z,17.67
2022-09-24T09:06:01.754Z,17.83
2022-09-24T09:09:07.196Z,17.98
2022-09-24T09:12:03.239Z,18.10
2022-09-24T09:14:58.839Z,18.19
2022-09-24T09:17:51.563Z,18.32
2022-09-24T09:20:43.216Z,18.44
2022-09-24T09:23:38.415Z,18.57
2022-09-24T09:26:27.504Z,18.67
2022-09-24T09:29:17.081Z,18.75
2022-09-24T09:32:14.440Z,18.86
2022-09-24T09:35:11.793Z,18.99
2022-09-24T09:38:09.353Z,19.04
2022-09-24T09:41:06.770Z,19.03
2022-09-24T09:44:01.948Z,19.05
2022-09-24T09:46:57.342Z,19.03
2022-09-24T09:49:48.874Z,19.06
2022-09-24T09:52:39.910Z,19.08
2022-09-24T09:55:32.528Z,19.13
2022-09-24T09:58:24.390Z,19.23
2022-09-24T10:01:16.800Z,19.30
2022-09-24T10:04:06.857Z,19.42
2022-09-24T10:07:05.325Z,19.53
2022-09-24T10:10:17.132Z,19.68
2022-09-24T10:13:12.380Z,19.77
2022-09-24T10:16:04.379Z,19.82
2022-09-24T10:18:53.027Z,19.88
2022-09-24T10:21:41.572Z,19.98
2022-09-24T10:24:30.536Z,20.06
2022-09-24T10:27:29.517Z,20.17
2022-09-24T10:30:34.875Z,20.27
2022-09-24T10:33:24.453Z,20.36
2022-09-24T10:36:19.270Z,20.48
2022-09-24T10:39:14.980Z,20.56
2022-09-24T10:42:03.205Z,20.60
2022-09-24T10:44:53.397Z,20.67
2022-09-24T10:47:50.902Z,20.74
2022-09-24T10:50:46.646Z,20.80
2022-09-24T10:53:51.816Z,20.89
2022-09-24T10:56:46.684Z,21.00
2022-09-24T10:59:54.905Z,21.04
2022-09-24T11:03:18.810Z,21.12
2022-09-24T11:06:18.321Z,21.22
2022-09-24T11:09:16.882Z,21.31
2022-09-24T11:12:15.277Z,21.39
2022-09-24T11:15:19.805Z,21.46
2022-09-24T11:18:27.194Z,21.54
2022-09-24T11:21:29.681Z,21.67
2022-09-24T11:24:40.093Z,21.79
2022-09-24T11:27:48.764Z,21.86
2022-09-24T11:30:50.379Z,21.91
2022-09-24T11:33:55.749Z,21.90
2022-09-24T11:36:56.766Z,21.91
2022-09-24T11:40:03.504Z,21.94
2022-09-24T11:43:07.704Z,21.87
2022-09-24T11:46:12.022Z,21.89
2022-09-24T11:49:22.447Z,21.80
2022-09-24T11:52:14.717Z,21.73
2022-09-24T11:55:12.891Z,21.75
2022-09-24T11:58:13.931Z,21.78
2022-09-24T12:01:11.044Z,21.81
2022-09-24T12:04:06.213Z,21.82
2022-09-24T12:07:01.614Z,21.80
2022-09-24T12:09:55.985Z,21.80
2022-09-24T12:12:49.540Z,21.77
2022-09-24T12:15:47.204Z,21.77
2022-09-24T12:18:40.388Z,21.79
2022-09-24T12:21:34.940Z,21.83
2022-09-24T12:24:30.082Z,21.89
2022-09-24T12:27:22.662Z,21.93
2022-09-24T12:30:44.243Z,21.92
2022-09-24T12:33:38.285Z,21.87
2022-09-24T12:36:38.388Z,21.87
2022-09-24T12:39:33.432Z,21.91
2022-09-24T12:42:23.958Z,22.06
2022-09-24T12:45:16.654Z,22.06
2022-09-24T12:48:05.653Z,22.02
2022-09-24T12:51:00.699Z,21.91
2022-09-24T12:53:58.523Z,21.85
2022-09-24T12:56:47.280Z,21.80
2022-09-24T12:59:46.427Z,21.76
2022-09-24T13:02:47.138Z,21.72
2022-09-24T13:05:48.360Z,21.68
2022-09-24T13:08:43.213Z,21.67
2022-09-24T13:11:36.523Z,21.65
2022-09-24T13:14:29.532Z,21.59
2022-09-24T13:17:18.705Z,21.59
2022-09-24T13:20:16.456Z,21.60
2022-09-24T13:23:31.475Z,21.62
2022-09-24T13:26:33.642Z,21.65
2022-09-24T13:29:25.899Z,21.67
2022-09-24T13:32:19.619Z,21.66
2022-09-24T13:35:23.365Z,21.64
2022-09-24T13:38:21.567Z,21.67
2022-09-24T13:41:24.833Z,21.71
2022-09-24T13:44:19.494Z,21.72
2022-09-24T13:47:16.848Z,21.74
2022-09-24T13:50:15.475Z,21.74
2022-09-24T13:53:07.782Z,21.75
2022-09-24T13:55:59.663Z,21.78
2022-09-24T13:58:47.676Z,21.80
2022-09-24T14:01:42.058Z,21.79
2022-09-24T14:04:32.607Z,21.78
2022-09-24T14:07:23.358Z,21.72
2022-09-24T14:10:14.991Z,21.72
2022-09-24T14:13:13.999Z,21.72
2022-09-24T14:16:10.899Z,21.72
2022-09-24T14:19:05.106Z,21.68
2022-09-24T14:21:56.963Z,21.64
2022-09-24T14:24:51.744Z,21.61
2022-09-24T14:27:45.328Z,21.59
2022-09-24T14:30:36.973Z,21.56
2022-09-24T14:33:28.556Z,21.54
2022-09-24T14:36:18.017Z,21.52
2022-09-24T14:39:07.651Z,21.46
2022-09-24T14:41:58.992Z,21.39
2022-09-24T14:44:48.983Z,21.30
2022-09-24T14:47:39.141Z,21.25
2022-09-24T14:50:37.360Z,21.21
2022-09-24T14:53:30.212Z,21.17
2022-09-24T14:56:21.628Z,21.09
2022-09-24T14:59:26.343Z,21.04
2022-09-24T15:02:21.491Z,21.01
2022-09-24T15:05:11.249Z,20.94
2022-09-24T15:08:29.281Z,20.89
2022-09-24T15:11:19.060Z,20.81
2022-09-24T15:14:24.738Z,20.73
2022-09-24T15:17:23.559Z,20.65
2022-09-24T15:20:14.001Z,20.58
2022-09-24T15:23:02.138Z,20.51
2022-09-24T15:25:50.892Z,20.43
2022-09-24T15:28:39.854Z,20.34
2022-09-24T15:31:29.272Z,20.25
2022-09-24T15:34:24.332Z,20.15
2022-09-24T15:37:16.295Z,20.04
2022-09-24T15:40:16.844Z,19.97
2022-09-24T15:43:06.160Z,19.86
2022-09-24T15:45:55.322Z,19.76
2022-09-24T15:48:45.920Z,19.68
2022-09-24T15:51:35.292Z,19.56
2022-09-24T15:54:24.660Z,19.47
2022-09-24T15:57:14.562Z,19.35
2022-09-24T16:00:03.814Z,19.23
2022-09-24T16:02:55.632Z,19.11
2022-09-24T16:05:44.193Z,18.99
2022-09-24T16:08:32.736Z,18.86
2022-09-24T16:11:24.155Z,18.74
2022-09-24T16:14:13.316Z,18.61
2022-09-24T16:17:02.073Z,18.48
2022-09-24T16:19:50.580Z,18.37
2022-09-24T16:22:38.765Z,18.21
2022-09-24T16:25:28.031Z,18.06
2022-09-24T16:28:16.891Z,17.92
2022-09-24T16:31:08.189Z,17.76
2022-09-24T16:33:57.881Z,17.61
2022-09-24T16:36:47.051Z,17.48
2022-09-24T16:39:35.535Z,17.33
2022-09-24T16:42:25.990Z,17.20
2022-09-24T16:45:14.544Z,17.06
2022-09-24T16:48:04.114Z,16.93
2022-09-24T16:50:52.664Z,16.80
2022-09-24T16:53:43.930Z,16.66
2022-09-24T16:56:38.363Z,16.52
2022-09-24T16:59:27.142Z,16.38
2022-09-24T17:02:15.931Z,16.25
2022-09-24T17:05:06.271Z,16.13
2022-09-24T17:07:54.411Z,16.02
2022-09-24T17:10:51.577Z,15.89
2022-09-24T17:13:40.521Z,15.77
2022-09-24T17:16:30.522Z,15.65
2022-09-24T17:19:18.850Z,15.51
2022-09-24T17:22:07.811Z,15.37
2022-09-24T17:24:56.567Z,15.18
2022-09-24T17:27:45.123Z,14.99
2022-09-24T17:30:33.869Z,14.83
2022-09-24T17:33:42.369Z,14.75
2022-09-24T17:36:33.330Z,14.63
2022-09-24T17:39:22.594Z,14.52
2022-09-24T17:42:11.651Z,14.44
2022-09-24T17:45:00.802Z,14.35
2022-09-24T17:47:59.928Z,14.25
2022-09-24T17:50:55.749Z,14.15
2022-09-24T17:53:44.467Z,14.03
2022-09-24T17:56:38.302Z,13.93
2022-09-24T17:59:27.910Z,13.83
2022-09-24T18:02:16.517Z,13.74
2022-09-24T18:05:06.849Z,13.64
2022-09-24T18:07:55.402Z,13.55
2022-09-24T18:10:43.952Z,13.46
2022-09-24T18:13:33.903Z,13.38
2022-09-24T18:16:24.342Z,13.27
2022-09-24T18:19:15.338Z,13.18
2022-09-24T18:22:05.938Z,13.15
2022-09-24T18:24:54.690Z,13.22
2022-09-24T18:27:44.881Z,13.27
2022-09-24T18:30:33.850Z,13.32
2022-09-24T18:33:24.576Z,13.30
2022-09-24T18:36:14.947Z,13.26
2022-09-24T18:39:04.405Z,13.38
2022-09-24T18:41:53.773Z,14.40
2022-09-24T18:44:43.760Z,15.78
2022-09-24T18:47:32.772Z,17.17
2022-09-24T18:50:21.267Z,18.57
2022-09-24T18:53:10.655Z,19.98
2022-09-24T18:56:03.689Z,21.07
2022-09-24T18:58:57.362Z,21.82
2022-09-24T19:01:47.225Z,22.49
2022-09-24T19:04:36.095Z,22.99
2022-09-24T19:07:24.624Z,23.27
2022-09-24T19:10:13.406Z,22.91
2022-09-24T19:13:02.159Z,22.12
2022-09-24T19:15:51.388Z,21.27
2022-09-24T19:18:41.220Z,20.45
2022-09-24T19:21:30.063Z,19.66
2022-09-24T19:24:19.839Z,18.94
2022-09-24T19:27:08.388Z,18.29
2022-09-24T19:29:56.735Z,17.70
2022-09-24T19:32:45.493Z,17.15
2022-09-24T19:35:34.858Z,16.63
2022-09-24T19:38:26.274Z,16.16
2022-09-24T19:41:18.639Z,15.74
2022-09-24T19:44:09.210Z,15.37
2022-09-24T19:46:58.286Z,15.04
2022-09-24T19:49:47.444Z,14.74
2022-09-24T19:52:36.605Z,14.49
2022-09-24T19:55:28.612Z,14.25
2022-09-24T19:58:17.389Z,14.03
2022-09-24T20:01:11.281Z,13.82
2022-09-24T20:04:05.531Z,13.62
2022-09-24T20:06:54.508Z,13.44
2022-09-24T20:09:42.653Z,13.27
2022-09-24T20:12:32.427Z,13.13
2022-09-24T20:15:21.590Z,12.98
2022-09-24T20:18:12.394Z,12.84
2022-09-24T20:21:05.048Z,12.70
2022-09-24T20:23:55.391Z,12.56
2022-09-24T20:27:02.008Z,12.44
2022-09-24T20:29:53.278Z,12.30
2022-09-24T20:32:43.636Z,12.18
2022-09-24T20:35:32.378Z,12.07
2022-09-24T20:38:21.325Z,11.96
2022-09-24T20:41:11.515Z,11.83
2022-09-24T20:44:00.269Z,11.76
2022-09-24T20:46:48.419Z,11.66
2022-09-24T20:49:36.958Z,11.57
2022-09-24T20:52:25.306Z,11.49
2022-09-24T20:55:15.218Z,11.41
2022-09-24T20:58:04.253Z,11.34
2022-09-24T21:00:54.440Z,11.26
2022-09-24T21:03:44.927Z,11.20
2022-09-24T21:06:36.909Z,11.13
2022-09-24T21:09:26.226Z,11.05
2022-09-24T21:12:14.985Z,10.98
2022-09-24T21:15:03.536Z,10.92
2022-09-24T21:18:18.342Z,10.76
2022-09-24T21:21:05.825Z,10.64
2022-09-24T21:23:56.857Z,10.56
2022-09-24T21:26:46.202Z,10.49
2022-09-24T21:29:35.542Z,10.43
2022-09-24T21:32:24.533Z,10.36
2022-09-24T21:35:12.554Z,10.30
2022-09-24T21:38:01.224Z,10.25
2022-09-24T21:40:55.176Z,10.19
2022-09-24T21:43:44.058Z,10.13
2022-09-24T21:46:34.281Z,10.09
2022-09-24T21:49:23.200Z,10.04
2022-09-24T21:52:12.164Z,9.97
2022-09-24T21:55:01.119Z,9.94
2022-09-24T21:57:49.672Z,9.89
2022-09-24T22:00:38.433Z,9.82
2022-09-24T22:03:26.974Z,9.77
2022-09-24T22:06:15.941Z,9.72
2022-09-24T22:09:07.356Z,9.66
2022-09-24T22:11:57.338Z,9.61
2022-09-24T22:14:45.494Z,9.56
2022-09-24T22:17:34.228Z,9.50
2022-09-24T22:20:22.343Z,9.43
2022-09-24T22:23:12.359Z,9.36
2022-09-24T22:26:01.109Z,9.31
2022-09-24T22:28:50.069Z,9.26
2022-09-24T22:31:39.232Z,9.20
2022-09-24T22:34:46.828Z,9.17
2022-09-24T22:37:35.996Z,9.13
2022-09-24T22:40:25.087Z,9.08
2022-09-24T22:43:13.670Z,9.02
2022-09-24T22:46:05.175Z,8.97
2022-09-24T22:48:53.263Z,8.94
2022-09-24T22:51:42.224Z,8.90
2022-09-24T22:54:31.388Z,8.87
2022-09-24T22:57:20.756Z,8.80
2022-09-24T23:00:14.600Z,8.77
2022-09-24T23:03:04.204Z,8.71
2022-09-24T23:05:52.961Z,8.68
2022-09-24T23:08:42.332Z,8.65
2022-09-24T23:11:34.492Z,8.62
2022-09-24T23:14:23.324Z,8.58
2022-09-24T23:17:12.147Z,8.55
2022-09-24T23:20:02.060Z,8.51
2022-09-24T23:22:50.615Z,8.47
2022-09-24T23:25:39.574Z,8.43
2022-09-24T23:28:28.731Z,8.36
2022-09-24T23:31:18.691Z,8.31
2022-09-24T23:34:08.085Z,8.28
2022-09-24T23:36:57.044Z,8.22
2022-09-24T23:39:46.653Z,8.20
2022-09-24T23:42:36.188Z,8.16
2022-09-24T23:45:24.534Z,8.14
2022-09-24T23:48:14.980Z,8.11
2022-09-24T23:51:03.888Z,8.10
2022-09-24T23:53:53.255Z,8.10
2022-09-24T23:56:42.626Z,8.05
2022-09-24T23:59:31.475Z,8.05
